createdAt,value
2022-12-26T08:10:15.672Z,17.73
2022-12-26T08:12:42.394Z,17.63
2022-12-26T08:15:11.359Z,16.33
2022-12-26T08:17:38.099Z,15.90
2022-12-26T08:20:05.209Z,16.17
2022-12-26T08:22:31.939Z,16.03
2022-12-26T08:24:58.592Z,16.47
2022-12-26T08:27:25.324Z,16.33
2022-12-26T08:29:53.413Z,16.80
2022-12-26T08:32:20.105Z,16.10
2022-12-26T08:34:46.808Z,16.83
2022-12-26T08:37:13.549Z,16.93
2022-12-26T08:39:42.751Z,15.90
2022-12-26T08:42:09.466Z,16.43
2022-12-26T08:44:36.260Z,15.43
2022-12-26T08:47:02.903Z,16.57
2022-12-26T08:49:29.541Z,15.60
2022-12-26T08:51:56.292Z,16.33
2022-12-26T08:54:23.445Z,15.27
2022-12-26T08:56:50.080Z,15.77
2022-12-26T08:59:16.841Z,15.83
2022-12-26T09:01:43.624Z,14.20
2022-12-26T09:04:10.570Z,15.07
2022-12-26T09:06:38.701Z,14.80
2022-12-26T09:09:07.422Z,16.13
2022-12-26T09:11:34.343Z,15.63
2022-12-26T09:14:02.343Z,16.30
2022-12-26T09:16:58.335Z,14.90
2022-12-26T09:19:29.779Z,14.00
2022-12-26T09:22:23.685Z,14.90
2022-12-26T09:24:50.450Z,14.00
2022-12-26T09:27:17.126Z,14.40
2022-12-26T09:29:43.869Z,13.87
2022-12-26T09:32:10.616Z,15.43
2022-12-26T09:34:37.380Z,20.03
2022-12-26T09:37:04.033Z,16.67
2022-12-26T09:39:31.074Z,15.53
2022-12-26T09:42:15.581Z,14.53
2022-12-26T09:44:47.755Z,15.10
2022-12-26T09:47:19.558Z,14.90
2022-12-26T09:49:56.826Z,13.83
2022-12-26T09:52:36.954Z,13.33
2022-12-26T09:55:14.364Z,13.13
2022-12-26T09:57:46.474Z,13.50
2022-12-26T10:00:33.377Z,14.03
2022-12-26T10:03:00.442Z,14.90
2022-12-26T10:05:32.986Z,16.47
2022-12-26T10:08:18.533Z,15.70
2022-12-26T10:10:57.587Z,15.37
2022-12-26T10:13:33.900Z,15.13
2022-12-26T10:16:09.791Z,15.70
2022-12-26T10:18:58.236Z,16.10
2022-12-26T10:21:37.179Z,15.87
2022-12-26T10:24:15.997Z,15.67
2022-12-26T10:26:49.916Z,15.23
2022-12-26T10:29:25.898Z,14.67
2022-12-26T10:31:58.558Z,14.77
2022-12-26T10:34:27.993Z,14.30
2022-12-26T10:37:00.015Z,13.80
2022-12-26T10:39:36.124Z,13.37
2022-12-26T10:42:30.162Z,13.10
2022-12-26T10:44:58.252Z,12.73
2022-12-26T10:47:27.462Z,13.90
2022-12-26T10:49:54.602Z,13.67
2022-12-26T10:52:30.406Z,12.47
2022-12-26T10:55:28.595Z,12.63
2022-12-26T10:57:48.873Z,13.13
2022-12-26T11:00:20.138Z,13.17
2022-12-26T11:03:02.578Z,14.63
2022-12-26T11:08:28.719Z,15.47
2022-12-26T11:11:03.524Z,14.97
2022-12-26T11:13:34.666Z,14.27
2022-12-26T11:16:01.907Z,14.77
2022-12-26T11:18:48.355Z,14.40
2022-12-26T11:21:17.810Z,19.27
2022-12-26T11:23:49.684Z,31.57
2022-12-26T11:26:24.675Z,15.30
2022-12-26T11:29:11.549Z,17.47
2022-12-26T11:31:39.946Z,15.20
2022-12-26T11:34:17.869Z,16.20
2022-12-26T11:36:47.517Z,15.80
2022-12-26T11:39:42.451Z,16.50
2022-12-26T11:42:11.848Z,16.70
2022-12-26T11:44:45.604Z,16.40
2022-12-26T11:47:14.551Z,15.90
2022-12-26T11:49:45.506Z,15.20
2022-12-26T11:52:30.692Z,16.03
2022-12-26T11:54:57.300Z,15.33
2022-12-26T11:57:33.812Z,14.57
2022-12-26T12:00:16.463Z,17.70
2022-12-26T12:02:43.613Z,15.00
2022-12-26T12:05:16.588Z,15.87
2022-12-26T12:08:04.731Z,15.47
2022-12-26T12:10:47.708Z,14.60
2022-12-26T12:13:27.602Z,14.43
2022-12-26T12:16:12.697Z,15.27
2022-12-26T12:18:47.565Z,14.57
2022-12-26T12:21:58.644Z,14.63
2022-12-26T12:25:20.189Z,15.37
2022-12-26T12:28:00.813Z,15.13
2022-12-26T12:30:35.891Z,15.30
2022-12-26T12:33:34.129Z,16.67
2022-12-26T12:36:13.591Z,15.63
2022-12-26T12:38:46.482Z,16.03
2022-12-26T12:41:52.529Z,16.17
2022-12-26T12:44:50.310Z,15.83
2022-12-26T12:47:31.825Z,16.20
2022-12-26T12:50:01.355Z,18.80
2022-12-26T12:52:52.139Z,19.23
2022-12-26T12:55:36.289Z,18.43
2022-12-26T12:58:16.005Z,18.93
2022-12-26T13:01:03.127Z,18.47
2022-12-26T13:03:45.717Z,18.23
2022-12-26T13:06:16.755Z,18.43
2022-12-26T13:08:47.130Z,19.60
2022-12-26T13:11:21.020Z,18.60
2022-12-26T13:13:53.923Z,20.17
2022-12-26T13:16:27.099Z,21.00
2022-12-26T13:19:06.455Z,21.73
2022-12-26T13:21:36.574Z,22.50
2022-12-26T13:24:24.267Z,23.37
2022-12-26T13:27:00.470Z,24.43
2022-12-26T13:29:41.043Z,23.83
2022-12-26T13:32:31.331Z,22.77
2022-12-26T13:35:00.285Z,18.43
2022-12-26T13:37:35.423Z,16.07
2022-12-26T13:40:06.731Z,16.53
2022-12-26T13:42:54.991Z,16.93
2022-12-26T13:45:43.320Z,16.13
2022-12-26T13:48:18.758Z,16.00
2022-12-26T13:50:55.611Z,15.80
2022-12-26T13:53:25.706Z,15.43
2022-12-26T13:56:36.831Z,14.83
2022-12-26T14:07:06.808Z,14.67
2022-12-26T14:10:10.446Z,15.30
2022-12-26T14:13:19.627Z,15.97
2022-12-26T14:25:18.693Z,14.80
2022-12-26T14:28:38.032Z,13.67
2022-12-26T14:31:16.481Z,13.73
2022-12-26T14:34:11.375Z,12.80
2022-12-26T14:36:57.428Z,12.63
2022-12-26T14:39:39.455Z,12.70
2022-12-26T14:42:24.730Z,12.97
2022-12-26T14:44:57.566Z,17.07
2022-12-26T14:47:44.385Z,16.23
2022-12-26T14:50:32.751Z,16.27
2022-12-26T14:53:24.423Z,38.60
2022-12-26T14:55:53.683Z,19.50
2022-12-26T14:58:26.666Z,15.80
2022-12-26T15:00:54.371Z,14.80
2022-12-26T15:03:59.122Z,15.20
2022-12-26T15:06:53.688Z,13.67
2022-12-26T15:09:55.630Z,13.60
2022-12-26T15:12:37.953Z,15.47
2022-12-26T15:15:10.677Z,14.10
2022-12-26T15:17:55.734Z,14.50
2022-12-26T15:20:37.671Z,13.60
2022-12-26T15:23:07.382Z,13.20
2022-12-26T15:25:52.711Z,13.57
2022-12-26T15:28:32.375Z,14.37
2022-12-26T15:31:02.162Z,14.23
2022-12-26T15:33:46.943Z,14.23
2022-12-26T15:36:25.616Z,14.17
2022-12-26T15:39:10.469Z,14.27
2022-12-26T15:41:47.059Z,13.67
2022-12-26T15:44:42.839Z,17.23
2022-12-26T15:47:12.460Z,14.03
2022-12-26T15:49:53.978Z,14.43
2022-12-26T15:52:46.172Z,14.43
2022-12-26T15:55:40.951Z,13.70
2022-12-26T15:58:52.415Z,14.37
2022-12-26T16:01:38.927Z,14.87
2022-12-26T16:04:23.771Z,14.80
2022-12-26T16:07:26.060Z,16.53
2022-12-26T16:09:56.344Z,16.63
2022-12-26T16:12:32.030Z,16.60
2022-12-26T16:15:10.761Z,17.13
2022-12-26T16:17:38.535Z,15.63
2022-12-26T16:20:48.499Z,15.07
2022-12-26T16:23:17.812Z,14.97
2022-12-26T16:25:52.394Z,17.70
2022-12-26T16:28:24.203Z,15.80
2022-12-26T16:30:51.073Z,15.10
2022-12-26T16:33:18.284Z,15.60
2022-12-26T16:35:45.135Z,14.67
2022-12-26T16:38:15.268Z,14.97
2022-12-26T16:40:50.305Z,15.03
2022-12-26T16:43:26.432Z,14.30
2022-12-26T16:45:58.780Z,14.47
2022-12-26T16:48:27.340Z,14.43
2022-12-26T16:51:03.551Z,14.03
2022-12-26T16:53:36.616Z,15.03
2022-12-26T16:56:29.078Z,14.90
2022-12-26T16:59:05.399Z,15.90
2022-12-26T17:01:32.760Z,14.47
2022-12-26T17:04:05.803Z,14.80
2022-12-26T17:06:35.082Z,14.10
2022-12-26T17:09:21.145Z,13.40
2022-12-26T17:11:56.183Z,14.27
2022-12-26T17:14:30.864Z,14.40
2022-12-26T17:17:04.255Z,14.20
2022-12-26T17:19:33.304Z,14.03
2022-12-26T17:22:15.148Z,14.57
2022-12-26T17:24:42.837Z,27.47
2022-12-26T17:27:26.694Z,38.97
2022-12-26T17:30:09.407Z,21.77
2022-12-26T17:32:49.096Z,20.17
2022-12-26T17:38:42.062Z,24.60
2022-12-26T17:41:20.116Z,23.37
2022-12-26T17:43:55.747Z,29.97
2022-12-26T17:46:39.989Z,29.10
2022-12-26T17:49:10.265Z,29.83
2022-12-26T17:51:58.304Z,20.87
2022-12-26T17:54:40.402Z,19.87
2022-12-26T17:57:30.702Z,19.37
2022-12-26T18:03:22.465Z,22.43
2022-12-26T18:05:57.271Z,23.90
2022-12-26T18:08:39.733Z,35.27
2022-12-26T18:11:17.878Z,33.60
2022-12-26T18:14:20.135Z,30.17
2022-12-26T18:16:54.171Z,37.60
2022-12-26T18:19:26.296Z,17.47
2022-12-26T18:21:58.160Z,21.10
2022-12-26T18:24:32.222Z,14.80
2022-12-26T18:27:00.087Z,12.10
2022-12-26T18:29:36.969Z,9.50
2022-12-26T18:32:30.027Z,10.10
2022-12-26T18:35:02.095Z,5.00
2022-12-26T18:37:45.430Z,3.20
2022-12-26T18:40:35.978Z,1.90
2022-12-26T18:43:05.303Z,0.80
2022-12-26T18:45:46.023Z,0.50
2022-12-26T18:48:25.719Z,0.40
2022-12-26T18:53:49.153Z,0.40
2022-12-26T19:00:05.656Z,0.40
2022-12-26T19:02:44.263Z,0.43
2022-12-26T19:05:31.347Z,0.30
2022-12-26T19:08:07.223Z,0.20
2022-12-26T19:11:05.278Z,0.20
2022-12-26T19:13:39.916Z,0.20
2022-12-26T19:16:09.558Z,0.30
2022-12-26T19:18:41.666Z,0.20
2022-12-26T19:21:17.394Z,0.20
2022-12-26T19:27:01.340Z,0.30
2022-12-26T19:34:14.570Z,0.20
2022-12-26T19:39:58.202Z,0.10
2022-12-26T19:42:37.397Z,0.17
2022-12-26T19:52:17.144Z,0.20
2022-12-26T19:55:10.265Z,0.10
2022-12-26T19:57:56.101Z,0.10
2022-12-26T20:04:15.452Z,0.13
2022-12-26T20:09:55.267Z,0.10
2022-12-26T20:20:50.210Z,0.20
2022-12-26T20:36:48.234Z,0.10
2022-12-26T20:39:17.070Z,0.30
2022-12-26T20:41:44.085Z,0.10
2022-12-26T20:44:13.655Z,0.30
2022-12-26T20:46:41.327Z,0.47
2022-12-26T20:49:09.009Z,0.50
2022-12-26T20:51:37.723Z,0.50
2022-12-26T20:54:07.007Z,0.50
2022-12-26T20:56:34.607Z,0.30
2022-12-26T20:59:01.292Z,0.10
2022-12-26T21:01:28.523Z,0.10
2022-12-26T21:03:56.604Z,0.10
2022-12-26T21:06:35.034Z,0.10
2022-12-26T21:09:02.491Z,0.10
2022-12-26T21:11:38.250Z,0.20
2022-12-26T21:14:16.597Z,0.20
2022-12-26T21:16:56.385Z,0.10
2022-12-26T21:19:24.923Z,0.60
2022-12-26T21:21:53.855Z,0.50
2022-12-26T21:24:26.655Z,2.27
2022-12-26T21:26:54.141Z,0.20
2022-12-26T21:29:32.433Z,0.20
2022-12-26T21:31:59.780Z,0.20
2022-12-26T21:34:28.629Z,1.20
2022-12-26T21:37:14.268Z,0.40
2022-12-26T21:39:41.188Z,0.20
2022-12-26T21:42:09.237Z,0.50
2022-12-26T21:44:36.760Z,0.30
2022-12-26T21:47:04.937Z,0.30
2022-12-26T21:49:31.578Z,0.10
2022-12-26T21:51:58.203Z,0.10
2022-12-26T21:54:48.536Z,0.20
2022-12-26T21:57:15.797Z,0.30
2022-12-26T21:59:57.998Z,0.20
2022-12-26T22:03:10.558Z,0.20
2022-12-26T22:05:40.599Z,0.20
2022-12-26T22:08:30.192Z,0.27
2022-12-26T22:14:44.254Z,0.30
2022-12-26T22:17:14.180Z,0.30
2022-12-26T22:19:41.688Z,0.30
2022-12-26T22:22:08.448Z,0.10
2022-12-26T22:24:35.143Z,0.20
2022-12-26T22:27:01.746Z,0.20
2022-12-26T22:29:28.406Z,0.10
2022-12-26T22:31:58.375Z,0.23
2022-12-26T22:34:25.160Z,0.20
2022-12-26T22:36:54.383Z,0.20
2022-12-26T22:39:21.011Z,0.20
2022-12-26T22:41:47.728Z,0.20
2022-12-26T22:44:14.800Z,0.20
2022-12-26T22:46:42.282Z,4.63
2022-12-26T22:49:09.082Z,6.00
2022-12-26T22:51:35.707Z,3.70
2022-12-26T22:54:02.609Z,0.90
2022-12-26T22:56:29.770Z,0.10
2022-12-26T22:59:00.635Z,0.30
2022-12-26T23:01:27.467Z,0.17
2022-12-26T23:03:54.231Z,0.10
2022-12-26T23:06:21.045Z,0.10
2022-12-26T23:08:48.926Z,0.10
2022-12-26T23:11:16.146Z,0.10
2022-12-26T23:13:42.941Z,0.00
2022-12-26T23:16:17.047Z,0.10
2022-12-26T23:19:07.484Z,0.60
2022-12-26T23:21:43.807Z,0.10
2022-12-26T23:24:14.453Z,0.10
2022-12-26T23:26:44.908Z,0.20
2022-12-26T23:29:31.610Z,0.50
2022-12-26T23:31:58.835Z,0.20
2022-12-26T23:34:25.441Z,0.30
2022-12-26T23:36:52.217Z,0.10
2022-12-26T23:39:19.148Z,0.13
2022-12-26T23:41:46.132Z,0.20
2022-12-26T23:44:13.010Z,0.10
2022-12-26T23:46:41.027Z,0.10
2022-12-26T23:49:08.279Z,0.07
2022-12-26T23:51:34.904Z,0.00
2022-12-26T23:54:01.615Z,0.20
2022-12-26T23:56:28.258Z,0.03
2022-12-26T23:58:55.638Z,0.07
